createdAt,value
2023-04-07T00:00:18.981Z,19.00
2023-04-07T00:02:49.090Z,19.40
2023-04-07T00:05:17.853Z,20.00
2023-04-07T00:07:55.645Z,20.50
2023-04-07T00:10:25.969Z,20.70
2023-04-07T00:12:54.439Z,20.70
2023-04-07T00:15:23.032Z,20.80
2023-04-07T00:17:53.190Z,20.40
2023-04-07T00:20:21.841Z,20.20
2023-04-07T00:22:50.744Z,19.90
2023-04-07T00:25:19.420Z,20.10
2023-04-07T00:27:48.015Z,19.70
2023-04-07T00:30:17.777Z,19.90
2023-04-07T00:32:46.693Z,20.50
2023-04-07T00:35:16.550Z,21.40
2023-04-07T00:37:45.146Z,22.20
2023-04-07T00:40:13.936Z,22.30
2023-04-07T00:42:42.450Z,22.30
2023-04-07T00:45:12.824Z,23.00
2023-04-07T00:47:41.667Z,23.40
2023-04-07T00:50:11.407Z,24.40
2023-04-07T00:52:42.491Z,25.20
2023-04-07T00:55:11.917Z,25.90
2023-04-07T00:57:40.528Z,26.60
2023-04-07T01:00:11.061Z,28.10
2023-04-07T01:02:46.686Z,28.20
2023-04-07T01:05:22.583Z,30.30
2023-04-07T01:08:02.198Z,30.70
2023-04-07T01:10:43.349Z,30.90
2023-04-07T01:13:25.463Z,31.10
2023-04-07T01:15:57.681Z,31.10
2023-04-07T01:18:34.660Z,30.90
2023-04-07T01:21:08.916Z,31.10
2023-04-07T01:24:05.920Z,31.40
2023-04-07T01:26:35.404Z,32.40
2023-04-07T01:29:47.782Z,32.90
2023-04-07T01:32:18.292Z,33.20
2023-04-07T01:34:50.324Z,33.70
2023-04-07T01:37:20.399Z,34.10
2023-04-07T01:39:49.213Z,34.60
2023-04-07T01:42:20.393Z,34.90
2023-04-07T01:44:52.003Z,35.50
2023-04-07T01:47:21.131Z,36.40
2023-04-07T01:49:52.230Z,36.40
2023-04-07T01:52:22.063Z,36.90
2023-04-07T01:54:51.529Z,37.30
2023-04-07T01:57:20.506Z,37.40
2023-04-07T01:59:50.883Z,37.70
2023-04-07T02:02:19.630Z,38.00
2023-04-07T02:04:56.382Z,38.30
2023-04-07T02:07:33.230Z,38.70
2023-04-07T02:10:08.217Z,39.10
2023-04-07T02:12:39.452Z,39.00
2023-04-07T02:15:13.685Z,39.20
2023-04-07T02:17:51.221Z,39.40
2023-04-07T02:20:22.120Z,39.40
2023-04-07T02:22:50.946Z,39.50
2023-04-07T02:25:25.044Z,39.90
2023-04-07T02:27:54.123Z,40.10
2023-04-07T02:30:24.897Z,40.50
2023-04-07T02:32:53.728Z,40.90
2023-04-07T02:35:22.914Z,41.20
2023-04-07T02:37:51.838Z,41.40
2023-04-07T02:40:20.898Z,41.40
2023-04-07T02:42:49.399Z,41.70
2023-04-07T02:45:18.057Z,42.00
2023-04-07T02:47:48.202Z,42.40
2023-04-07T02:50:16.882Z,42.80
2023-04-07T02:52:45.572Z,43.00
2023-04-07T02:55:14.176Z,43.10
2023-04-07T02:57:42.697Z,42.90
2023-04-07T03:00:13.235Z,42.80
2023-04-07T03:02:41.819Z,42.90
2023-04-07T03:05:12.188Z,42.80
2023-04-07T03:07:41.555Z,42.80
2023-04-07T03:10:11.428Z,42.90
2023-04-07T03:12:40.062Z,42.60
2023-04-07T03:15:10.230Z,42.60
2023-04-07T03:17:38.864Z,42.60
2023-04-07T03:20:09.760Z,42.70
2023-04-07T03:22:39.583Z,42.90
2023-04-07T03:25:09.007Z,42.80
2023-04-07T03:27:37.578Z,43.20
2023-04-07T03:30:07.927Z,43.50
2023-04-07T03:32:36.475Z,43.40
2023-04-07T03:35:05.362Z,43.60
2023-04-07T03:37:33.872Z,43.50
2023-04-07T03:40:03.767Z,43.70
2023-04-07T03:42:32.332Z,43.70
2023-04-07T03:45:00.834Z,44.00
2023-04-07T03:47:29.334Z,44.30
2023-04-07T03:49:57.909Z,44.30
2023-04-07T03:52:26.529Z,44.30
2023-04-07T03:54:55.089Z,44.00
2023-04-07T03:57:25.375Z,43.90
2023-04-07T03:59:54.500Z,43.80
2023-04-07T04:02:23.260Z,43.60
2023-04-07T04:04:51.838Z,43.30
2023-04-07T04:07:20.419Z,43.10
2023-04-07T04:09:48.952Z,43.00
2023-04-07T04:12:17.525Z,43.00
2023-04-07T04:14:47.507Z,43.00
2023-04-07T04:17:15.998Z,43.00
2023-04-07T04:19:44.562Z,43.50
2023-04-07T04:22:13.231Z,43.90
2023-04-07T04:24:42.615Z,43.90
2023-04-07T04:27:11.115Z,44.10
2023-04-07T04:29:39.944Z,44.40
2023-04-07T04:32:09.875Z,44.30
2023-04-07T04:34:38.388Z,44.20
2023-04-07T04:37:06.972Z,43.90
2023-04-07T04:39:35.789Z,43.90
2023-04-07T04:42:04.356Z,43.60
2023-04-07T04:44:32.865Z,43.60
2023-04-07T04:47:01.459Z,43.40
2023-04-07T04:49:31.641Z,43.30
2023-04-07T04:52:00.190Z,43.30
2023-04-07T04:54:28.734Z,43.30
2023-04-07T04:56:57.681Z,43.50
2023-04-07T04:59:27.060Z,43.60
2023-04-07T05:01:55.676Z,43.40
2023-04-07T05:04:24.583Z,43.20
2023-04-07T05:06:54.625Z,43.10
2023-04-07T05:09:23.111Z,43.00
2023-04-07T05:11:51.592Z,42.90
2023-04-07T05:14:20.184Z,42.80
2023-04-07T05:16:48.711Z,42.80
2023-04-07T05:19:17.252Z,43.00
2023-04-07T05:21:45.791Z,43.20
2023-04-07T05:24:15.730Z,43.20
2023-04-07T05:26:44.287Z,43.00
2023-04-07T05:29:12.797Z,43.10
2023-04-07T05:31:41.705Z,43.00
2023-04-07T05:34:10.474Z,42.70
2023-04-07T05:36:39.255Z,42.90
2023-04-07T05:39:07.800Z,43.00
2023-04-07T05:41:37.792Z,43.00
2023-04-07T05:44:07.849Z,42.80
2023-04-07T05:46:36.410Z,42.80
2023-04-07T05:49:18.895Z,42.70
2023-04-07T05:51:49.222Z,42.90
2023-04-07T05:54:18.093Z,42.90
2023-04-07T05:56:48.125Z,42.80
2023-04-07T05:59:16.800Z,43.00
2023-04-07T06:01:45.571Z,43.30
2023-04-07T06:04:14.094Z,43.10
2023-04-07T06:06:42.630Z,43.10
2023-04-07T06:09:11.581Z,43.20
2023-04-07T06:11:40.120Z,43.00
2023-04-07T06:14:10.773Z,43.20
2023-04-07T06:16:39.323Z,43.20
2023-04-07T06:19:08.364Z,43.50
2023-04-07T06:21:36.919Z,43.60
2023-04-07T06:24:05.602Z,43.60
2023-04-07T06:26:34.384Z,43.80
2023-04-07T06:29:03.073Z,43.70
2023-04-07T06:31:33.029Z,43.60
2023-04-07T06:34:01.880Z,43.70
2023-04-07T06:36:30.417Z,43.70
2023-04-07T06:38:59.032Z,43.80
2023-04-07T06:41:27.626Z,43.90
2023-04-07T06:43:56.213Z,43.70
2023-04-07T06:46:27.097Z,43.90
2023-04-07T06:48:58.095Z,44.10
2023-04-07T06:51:27.997Z,43.70
2023-04-07T06:53:56.886Z,43.90
2023-04-07T06:56:26.220Z,43.90
2023-04-07T06:58:54.896Z,43.80
2023-04-07T07:01:23.708Z,43.70
2023-04-07T07:03:52.769Z,44.00
2023-04-07T07:06:23.311Z,44.20
2023-04-07T07:08:51.977Z,44.20
2023-04-07T07:11:21.871Z,44.20
2023-04-07T07:13:50.758Z,44.20
2023-04-07T07:16:19.449Z,44.20
2023-04-07T07:18:52.168Z,44.30
2023-04-07T07:21:22.607Z,44.80
2023-04-07T07:23:51.821Z,44.70
2023-04-07T07:26:20.925Z,44.70
2023-04-07T07:28:49.710Z,44.80
2023-04-07T07:31:18.873Z,44.90
2023-04-07T07:33:49.459Z,44.70
2023-04-07T07:36:18.568Z,44.40
2023-04-07T07:38:48.711Z,44.30
2023-04-07T07:41:17.401Z,44.60
2023-04-07T07:43:46.492Z,44.10
2023-04-07T07:46:15.654Z,43.70
2023-04-07T07:48:44.874Z,43.70
2023-04-07T07:51:13.559Z,44.00
2023-04-07T09:00:21.965Z,36.30
2023-04-07T09:02:48.070Z,37.00
2023-04-07T09:05:23.697Z,35.90
2023-04-07T09:07:52.592Z,36.40
2023-04-07T09:10:21.592Z,35.90
2023-04-07T09:12:51.676Z,35.40
2023-04-07T09:15:23.398Z,36.30
2023-04-07T09:17:52.386Z,38.10
2023-04-07T09:20:21.309Z,37.70
2023-04-07T09:22:50.574Z,38.00
2023-04-07T09:25:22.933Z,36.10
2023-04-07T09:28:03.326Z,36.20
2023-04-07T09:30:35.172Z,36.20
2023-04-07T09:33:06.820Z,35.50
2023-04-07T09:35:54.606Z,36.30
2023-04-07T09:38:23.771Z,36.10
2023-04-07T09:40:52.570Z,35.50
2023-04-07T09:43:26.353Z,36.20
2023-04-07T09:54:13.429Z,34.60
2023-04-07T10:02:01.584Z,32.80
2023-04-07T10:04:31.374Z,33.70
2023-04-07T10:07:03.551Z,32.60
2023-04-07T10:09:33.811Z,29.90
2023-04-07T10:12:03.051Z,31.00
2023-04-07T10:14:34.098Z,30.90
2023-04-07T10:17:04.675Z,30.40
2023-04-07T10:19:35.920Z,29.20
2023-04-07T10:22:08.136Z,29.30
2023-04-07T10:24:56.030Z,29.40
2023-04-07T10:27:33.228Z,26.80
2023-04-07T10:30:04.440Z,27.30
2023-04-07T10:32:33.267Z,27.60
2023-04-07T10:35:02.467Z,29.00
2023-04-07T10:37:31.145Z,30.00
2023-04-07T10:40:32.696Z,27.70
2023-04-07T10:43:02.001Z,27.70
2023-04-07T10:46:02.692Z,28.70
2023-04-07T10:48:33.369Z,29.50
2023-04-07T10:51:16.777Z,30.40
2023-04-07T10:54:23.035Z,29.40
2023-04-07T10:57:17.203Z,29.30
2023-04-07T11:00:24.993Z,30.50
2023-04-07T11:02:53.745Z,28.20
2023-04-07T11:05:24.488Z,29.40
2023-04-07T11:08:02.652Z,28.00
2023-04-07T11:10:31.426Z,28.50
2023-04-07T11:13:07.767Z,26.60
2023-04-07T11:15:40.453Z,26.80
2023-04-07T11:18:17.257Z,21.70
2023-04-07T11:20:51.702Z,19.60
2023-04-07T11:23:23.066Z,21.90
2023-04-07T11:25:54.632Z,22.50
2023-04-07T11:28:24.597Z,21.90
2023-04-07T11:30:54.918Z,21.40
2023-04-07T11:33:26.274Z,20.50
2023-04-07T11:35:57.669Z,22.70
2023-04-07T11:38:28.430Z,21.40
2023-04-07T11:40:58.804Z,22.00
2023-04-07T11:43:29.595Z,21.30
2023-04-07T11:46:12.406Z,20.70
2023-04-07T11:48:43.120Z,22.30
2023-04-07T11:51:19.280Z,22.20
2023-04-07T11:53:48.558Z,22.50
2023-04-07T11:56:19.018Z,20.30
2023-04-07T11:58:54.424Z,21.20
2023-04-07T12:01:25.033Z,20.40
2023-04-07T12:03:59.984Z,20.40
2023-04-07T12:06:30.455Z,19.50
2023-04-07T12:08:58.869Z,19.60
2023-04-07T12:11:27.793Z,19.50
2023-04-07T12:13:57.853Z,18.40
2023-04-07T12:16:26.937Z,16.70
2023-04-07T12:18:55.446Z,17.50
2023-04-07T12:21:24.125Z,16.90
2023-04-07T12:23:52.616Z,14.50
2023-04-07T12:26:23.377Z,15.30
2023-04-07T12:28:52.112Z,15.30
2023-04-07T12:31:21.994Z,13.30
2023-04-07T12:33:50.548Z,14.60
2023-04-07T12:36:19.165Z,13.60
2023-04-07T12:38:47.571Z,13.40
2023-04-07T12:41:16.052Z,13.60
2023-04-07T12:43:46.258Z,13.70
2023-04-07T12:46:15.767Z,14.70
2023-04-07T12:48:46.040Z,12.80
2023-04-07T12:51:14.480Z,14.00
2023-04-07T12:53:42.842Z,13.60
2023-04-07T12:56:13.203Z,13.80
2023-04-07T12:58:41.798Z,13.10
2023-04-07T13:01:11.921Z,13.50
2023-04-07T13:03:40.850Z,13.20
2023-04-07T13:06:11.006Z,13.80
2023-04-07T13:08:40.021Z,13.70
2023-04-07T13:11:08.523Z,14.00
2023-04-07T13:13:36.942Z,13.20
2023-04-07T13:16:05.672Z,12.90
2023-04-07T13:18:34.091Z,13.40
2023-04-07T13:21:24.932Z,14.00
2023-04-07T13:23:52.788Z,14.40
2023-04-07T13:26:21.299Z,13.70
2023-04-07T13:28:49.690Z,14.30
2023-04-07T13:31:18.238Z,13.90
2023-04-07T13:33:47.153Z,12.80
2023-04-07T13:36:15.949Z,13.30
2023-04-07T13:38:44.443Z,14.00
2023-04-07T13:41:14.220Z,13.80
2023-04-07T13:43:42.912Z,13.80
2023-04-07T13:46:27.444Z,12.80
2023-04-07T13:48:57.411Z,12.30
2023-04-07T13:51:25.974Z,12.30
2023-04-07T13:53:54.511Z,13.20
2023-04-07T13:56:24.779Z,13.20
2023-04-07T13:58:54.102Z,11.90
2023-04-07T14:01:22.751Z,13.60
2023-04-07T14:03:51.535Z,12.70
2023-04-07T14:06:22.898Z,12.90
2023-04-07T14:08:52.071Z,13.50
2023-04-07T14:11:22.214Z,12.70
2023-04-07T14:13:54.640Z,13.40
2023-04-07T14:16:23.273Z,12.70
2023-04-07T14:18:51.865Z,12.50
2023-04-07T14:21:20.239Z,12.80
2023-04-07T14:23:48.675Z,12.40
2023-04-07T14:26:17.149Z,12.50
2023-04-07T14:28:45.804Z,12.20
2023-04-07T14:31:17.093Z,13.30
2023-04-07T14:33:46.875Z,13.20
2023-04-07T14:36:17.469Z,13.50
2023-04-07T14:38:46.043Z,13.60
2023-04-07T14:41:14.415Z,14.70
2023-04-07T14:43:42.821Z,14.70
2023-04-07T14:46:12.251Z,14.90
2023-04-07T14:48:42.262Z,15.40
2023-04-07T14:51:14.370Z,14.30
2023-04-07T14:53:43.428Z,14.40
2023-04-07T14:56:11.871Z,14.50
2023-04-07T14:58:40.857Z,13.80
2023-04-07T15:01:09.488Z,14.20
2023-04-07T15:03:38.608Z,14.50
2023-04-07T15:06:14.416Z,14.50
2023-04-07T15:08:42.867Z,15.00
2023-04-07T15:11:11.669Z,15.30
2023-04-07T15:13:40.157Z,15.60
2023-04-07T15:16:11.366Z,16.00
2023-04-07T15:18:42.492Z,15.40
2023-04-07T15:21:13.680Z,15.50
2023-04-07T15:23:42.800Z,16.00
2023-04-07T15:26:12.127Z,16.00
2023-04-07T15:28:40.868Z,15.40
2023-04-07T15:31:10.183Z,14.80
2023-04-07T15:33:40.648Z,14.90
2023-04-07T15:36:11.666Z,14.30
2023-04-07T15:38:40.510Z,14.20
2023-04-07T15:41:09.235Z,13.80
2023-04-07T15:43:37.925Z,14.20
2023-04-07T15:46:07.317Z,14.60
2023-04-07T15:48:35.892Z,14.10
2023-04-07T15:51:04.491Z,13.90
2023-04-07T15:53:34.800Z,14.10
2023-04-07T15:56:03.465Z,13.60
2023-04-07T15:58:33.223Z,14.30
2023-04-07T16:01:02.057Z,14.20
2023-04-07T16:03:32.175Z,14.30
2023-04-07T16:06:00.780Z,14.60
2023-04-07T16:08:29.513Z,15.80
2023-04-07T16:10:59.424Z,15.80
2023-04-07T16:13:28.101Z,16.00
2023-04-07T16:15:58.358Z,15.60
2023-04-07T16:18:27.065Z,15.50
2023-04-07T16:20:55.711Z,15.10
2023-04-07T16:23:24.485Z,15.20
2023-04-07T16:25:52.938Z,14.80
2023-04-07T16:28:22.936Z,14.20
2023-04-07T16:30:51.422Z,14.40
2023-04-07T16:33:19.959Z,14.60
2023-04-07T16:35:48.589Z,14.60
2023-04-07T16:38:17.178Z,15.20
2023-04-07T16:41:02.635Z,14.70
2023-04-07T16:43:33.694Z,15.00
2023-04-07T16:46:02.243Z,14.90
2023-04-07T16:48:30.876Z,15.10
2023-04-07T16:50:59.295Z,15.60
2023-04-07T16:53:27.811Z,15.30
2023-04-07T16:55:56.669Z,15.80
2023-04-07T16:58:25.208Z,16.00
2023-04-07T17:00:55.338Z,16.10
2023-04-07T17:03:23.965Z,16.00
2023-04-07T17:05:52.608Z,16.00
2023-04-07T17:08:21.229Z,16.10
2023-04-07T17:10:50.019Z,16.00
2023-04-07T17:13:18.527Z,16.30
2023-04-07T17:15:46.985Z,16.30
2023-04-07T17:18:16.852Z,16.40
2023-04-07T17:20:45.399Z,16.50
2023-04-07T17:23:14.316Z,16.50
2023-04-07T17:25:42.944Z,16.70
2023-04-07T17:28:11.576Z,17.00
2023-04-07T17:30:40.191Z,16.80
2023-04-07T17:33:09.295Z,17.10
2023-04-07T17:35:39.271Z,17.10
2023-04-07T17:38:07.955Z,17.10
2023-04-07T17:40:36.717Z,17.10
2023-04-07T17:43:05.320Z,17.70
2023-04-07T17:45:33.908Z,18.50
2023-04-07T17:48:03.728Z,19.10
2023-04-07T17:50:32.782Z,19.80
2023-04-07T17:53:03.035Z,20.00
2023-04-07T17:55:31.549Z,21.30
2023-04-07T17:58:01.212Z,22.00
2023-04-07T18:00:30.729Z,22.80
2023-04-07T18:02:59.668Z,23.50
2023-04-07T18:05:30.924Z,24.30
2023-04-07T18:07:59.758Z,24.60
2023-04-07T18:10:30.473Z,25.10
2023-04-07T18:12:59.078Z,25.60
2023-04-07T18:15:27.896Z,26.10
2023-04-07T18:17:56.470Z,26.30
2023-04-07T18:20:25.031Z,26.60
2023-04-07T18:22:55.557Z,26.90
2023-04-07T18:25:24.139Z,27.20
2023-04-07T18:27:54.006Z,27.70
2023-04-07T18:30:22.608Z,28.00
2023-04-07T18:32:51.146Z,28.00
2023-04-07T18:35:19.816Z,28.10
2023-04-07T18:37:48.507Z,27.80
2023-04-07T18:40:17.396Z,28.00
2023-04-07T18:42:46.457Z,27.90
2023-04-07T18:45:16.505Z,28.00
2023-04-07T18:47:45.381Z,28.10
2023-04-07T18:50:14.316Z,27.90
2023-04-07T18:52:42.790Z,28.00
2023-04-07T18:55:12.080Z,28.00
2023-04-07T18:57:40.684Z,28.00
2023-04-07T19:00:11.201Z,27.80
2023-04-07T19:02:44.735Z,28.00
2023-04-07T19:05:14.034Z,28.20
2023-04-07T19:07:42.680Z,28.30
2023-04-07T19:10:11.450Z,28.60
2023-04-07T19:12:40.720Z,28.90
2023-04-07T19:15:10.887Z,29.20
2023-04-07T19:17:40.832Z,29.70
2023-04-07T19:20:10.596Z,29.90
2023-04-07T19:22:39.086Z,29.70
2023-04-07T19:25:09.389Z,29.50
2023-04-07T19:27:39.557Z,29.00
2023-04-07T19:30:09.971Z,29.20
2023-04-07T19:32:38.454Z,29.60
2023-04-07T19:35:09.987Z,30.40
2023-04-07T19:37:40.254Z,30.60
2023-04-07T19:40:09.865Z,30.90
2023-04-07T19:42:39.352Z,31.10
2023-04-07T19:45:09.503Z,31.30
2023-04-07T19:47:39.083Z,31.70
2023-04-07T19:50:14.324Z,32.10
2023-04-07T19:52:45.294Z,32.50
2023-04-07T19:55:14.608Z,32.70
2023-04-07T19:57:43.237Z,33.10
2023-04-07T20:00:12.861Z,33.30
2023-04-07T20:02:41.438Z,33.60
2023-04-07T20:05:11.856Z,33.50
2023-04-07T20:07:40.255Z,33.10
2023-04-07T20:10:10.129Z,32.70
2023-04-07T20:12:38.908Z,32.10
2023-04-07T20:15:09.492Z,31.60
2023-04-07T20:17:38.068Z,31.70
2023-04-07T20:20:08.321Z,32.30
2023-04-07T20:22:38.181Z,32.60
2023-04-07T20:25:07.997Z,32.80
2023-04-07T20:27:36.610Z,33.20
2023-04-07T20:30:05.650Z,34.10
2023-04-07T20:32:34.154Z,34.60
2023-04-07T20:35:05.336Z,35.90
2023-04-07T20:37:33.841Z,36.70
2023-04-07T20:40:04.397Z,36.90
2023-04-07T20:42:32.897Z,37.30
2023-04-07T20:45:04.755Z,37.80
2023-04-07T20:47:36.277Z,38.70
2023-04-07T20:50:05.658Z,39.20
2023-04-07T20:52:36.852Z,39.00
2023-04-07T20:55:07.883Z,38.50
2023-04-07T20:57:36.564Z,38.40
2023-04-07T21:00:06.404Z,38.20
2023-04-07T21:02:35.716Z,38.70
2023-04-07T21:05:04.913Z,38.90
2023-04-07T21:07:33.483Z,39.70
2023-04-07T21:10:02.242Z,40.00
2023-04-07T21:12:32.458Z,40.50
2023-04-07T21:15:02.474Z,40.30
2023-04-07T21:17:30.964Z,39.80
2023-04-07T21:19:59.829Z,40.00
2023-04-07T21:22:29.038Z,40.40
2023-04-07T21:24:57.709Z,40.20
2023-04-07T21:27:26.328Z,40.00
2023-04-07T21:29:56.230Z,40.00
2023-04-07T21:32:25.212Z,40.20
2023-04-07T21:34:54.108Z,40.30
2023-04-07T21:37:23.642Z,40.20
2023-04-07T21:39:54.967Z,40.40
2023-04-07T21:42:23.556Z,40.60
2023-04-07T21:44:52.120Z,40.70
2023-04-07T21:47:22.191Z,40.40
2023-04-07T21:49:50.785Z,40.40
2023-04-07T21:52:19.865Z,40.40
2023-04-07T21:54:48.372Z,40.80
2023-04-07T21:57:17.132Z,41.10
2023-04-07T21:59:45.864Z,41.40
2023-04-07T22:02:14.802Z,41.60
2023-04-07T22:04:45.031Z,41.60
2023-04-07T22:07:14.087Z,41.30
2023-04-07T22:09:42.610Z,41.00
2023-04-07T22:12:11.567Z,40.60
2023-04-07T22:14:40.021Z,40.60
2023-04-07T22:17:08.530Z,41.70
2023-04-07T22:19:36.993Z,42.40
2023-04-07T22:22:08.269Z,42.60
2023-04-07T22:24:36.813Z,42.60
2023-04-07T22:27:05.533Z,42.40
2023-04-07T22:29:34.117Z,42.30
2023-04-07T22:32:02.644Z,42.10
2023-04-07T22:34:31.120Z,42.10
2023-04-07T22:36:59.590Z,42.30
2023-04-07T22:39:29.450Z,42.50
2023-04-07T22:41:58.054Z,43.20
2023-04-07T22:44:26.811Z,44.50
2023-04-07T22:46:55.434Z,46.20
2023-04-07T22:49:24.356Z,47.20
2023-04-07T22:51:52.939Z,48.20
2023-04-07T22:54:21.370Z,48.30
2023-04-07T22:56:51.503Z,48.80
2023-04-07T22:59:20.077Z,48.70
2023-04-07T23:01:48.596Z,48.40
2023-04-07T23:04:17.260Z,47.70
2023-04-07T23:06:45.907Z,47.20
2023-04-07T23:09:14.475Z,47.10
2023-04-07T23:11:43.071Z,46.70
2023-04-07T23:14:13.115Z,46.20
2023-04-07T23:16:41.642Z,46.90
2023-04-07T23:19:11.867Z,47.60
2023-04-07T23:21:40.425Z,47.80
2023-04-07T23:24:09.091Z,47.60
2023-04-07T23:26:37.779Z,47.10
2023-04-07T23:29:06.656Z,47.40
2023-04-07T23:31:36.542Z,48.10
2023-04-07T23:34:06.342Z,49.20
2023-04-07T23:36:34.924Z,49.30
2023-04-07T23:39:03.900Z,49.40
2023-04-07T23:41:33.163Z,49.10
2023-04-07T23:44:01.642Z,48.50
2023-04-07T23:46:30.134Z,47.80
2023-04-07T23:49:00.270Z,48.30
2023-04-07T23:51:28.832Z,48.00
2023-04-07T23:53:57.420Z,47.30
2023-04-07T23:56:26.063Z,48.20
2023-04-07T23:58:54.559Z,48.80
